sensor_id;sensor_type;location;lat;lon;timestamp;pressure;altitude;pressure_sealevel;temperature;humidity
24788;BME280;12883;52.662;5.196;2022-08-16T00:00:32;100536.22;;;22.61;100.00
24788;BME280;12883;52.662;5.196;2022-08-16T00:02:59;100531.47;;;22.10;100.00
24788;BME280;12883;52.662;5.196;2022-08-16T00:05:27;100534.28;;;21.95;100.00
24788;BME280;12883;52.662;5.196;2022-08-16T00:07:53;100525.66;;;21.93;100.00
24788;BME280;12883;52.662;5.196;2022-08-16T00:10:19;100522.41;;;21.91;100.00
24788;BME280;12883;52.662;5.196;2022-08-16T00:12:45;100532.72;;;21.89;100.00
24788;BME280;12883;52.662;5.196;2022-08-16T00:15:23;100535.41;;;21.89;100.00
24788;BME280;12883;52.662;5.196;2022-08-16T00:17:50;100526.28;;;21.85;100.00
24788;BME280;12883;52.662;5.196;2022-08-16T00:20:19;100519.28;;;21.79;100.00
24788;BME280;12883;52.662;5.196;2022-08-16T00:22:45;100537.63;;;21.82;100.00
24788;BME280;12883;52.662;5.196;2022-08-16T00:25:13;100531.38;;;21.86;100.00
24788;BME280;12883;52.662;5.196;2022-08-16T00:27:40;100543.53;;;21.89;100.00
24788;BME280;12883;52.662;5.196;2022-08-16T00:30:09;100536.53;;;21.83;100.00
24788;BME280;12883;52.662;5.196;2022-08-16T00:32:37;100544.63;;;21.83;100.00
24788;BME280;12883;52.662;5.196;2022-08-16T00:35:03;100553.00;;;21.86;100.00
24788;BME280;12883;52.662;5.196;2022-08-16T00:37:29;100540.88;;;21.79;100.00
24788;BME280;12883;52.662;5.196;2022-08-16T00:39:54;100551.09;;;21.87;100.00
24788;BME280;12883;52.662;5.196;2022-08-16T00:42:20;100554.84;;;21.91;100.00
24788;BME280;12883;52.662;5.196;2022-08-16T00:44:51;100556.75;;;21.90;100.00
24788;BME280;12883;52.662;5.196;2022-08-16T00:47:20;100577.91;;;23.17;100.00
24788;BME280;12883;52.662;5.196;2022-08-16T00:49:47;100570.72;;;23.97;100.00
24788;BME280;12883;52.662;5.196;2022-08-16T00:52:13;100580.69;;;24.38;100.00
24788;BME280;12883;52.662;5.196;2022-08-16T00:54:38;100573.16;;;24.67;100.00
24788;BME280;12883;52.662;5.196;2022-08-16T00:57:04;100569.06;;;24.83;100.00
24788;BME280;12883;52.662;5.196;2022-08-16T00:59:35;100555.63;;;23.25;100.00
24788;BME280;12883;52.662;5.196;2022-08-16T01:02:03;100553.56;;;22.22;100.00
24788;BME280;12883;52.662;5.196;2022-08-16T01:04:29;100550.50;;;21.95;100.00
24788;BME280;12883;52.662;5.196;2022-08-16T01:06:56;100541.94;;;21.83;100.00
24788;BME280;12883;52.662;5.196;2022-08-16T01:09:22;100548.44;;;21.77;100.00
24788;BME280;12883;52.662;5.196;2022-08-16T01:11:47;100537.13;;;21.70;100.00
24788;BME280;12883;52.662;5.196;2022-08-16T01:14:18;100539.31;;;21.68;100.00
24788;BME280;12883;52.662;5.196;2022-08-16T01:16:45;100522.91;;;21.54;100.00
24788;BME280;12883;52.662;5.196;2022-08-16T01:19:27;100528.25;;;21.59;100.00
24788;BME280;12883;52.662;5.196;2022-08-16T01:22:06;100535.03;;;21.57;100.00
24788;BME280;12883;52.662;5.196;2022-08-16T01:24:39;100532.03;;;21.58;100.00
24788;BME280;12883;52.662;5.196;2022-08-16T01:27:14;100541.50;;;21.56;100.00
24788;BME280;12883;52.662;5.196;2022-08-16T01:29:46;100545.03;;;21.51;100.00
24788;BME280;12883;52.662;5.196;2022-08-16T01:32:13;100533.97;;;21.53;100.00
24788;BME280;12883;52.662;5.196;2022-08-16T01:34:38;100528.59;;;21.48;100.00
24788;BME280;12883;52.662;5.196;2022-08-16T01:37:08;100528.88;;;21.46;100.00
24788;BME280;12883;52.662;5.196;2022-08-16T01:39:34;100533.47;;;21.41;100.00
24788;BME280;12883;52.662;5.196;2022-08-16T01:42:00;100536.16;;;21.46;100.00
24788;BME280;12883;52.662;5.196;2022-08-16T01:44:26;100561.56;;;21.45;100.00
24788;BME280;12883;52.662;5.196;2022-08-16T01:46:51;100560.09;;;22.54;100.00
24788;BME280;12883;52.662;5.196;2022-08-16T01:49:27;100567.38;;;23.39;100.00
24788;BME280;12883;52.662;5.196;2022-08-16T01:51:59;100566.63;;;23.99;100.00
24788;BME280;12883;52.662;5.196;2022-08-16T01:54:26;100572.47;;;24.25;100.00
24788;BME280;12883;52.662;5.196;2022-08-16T01:56:52;100563.44;;;24.48;100.00
24788;BME280;12883;52.662;5.196;2022-08-16T01:59:17;100551.53;;;23.28;100.00
24788;BME280;12883;52.662;5.196;2022-08-16T02:01:45;100536.00;;;21.81;100.00
24788;BME280;12883;52.662;5.196;2022-08-16T02:04:10;100528.56;;;21.58;100.00
24788;BME280;12883;52.662;5.196;2022-08-16T02:06:36;100526.69;;;21.53;100.00
24788;BME280;12883;52.662;5.196;2022-08-16T02:09:02;100525.09;;;21.42;100.00
24788;BME280;12883;52.662;5.196;2022-08-16T02:11:28;100505.44;;;21.32;100.00
24788;BME280;12883;52.662;5.196;2022-08-16T02:13:53;100514.56;;;21.41;100.00
24788;BME280;12883;52.662;5.196;2022-08-16T02:16:19;100500.59;;;21.29;100.00
24788;BME280;12883;52.662;5.196;2022-08-16T02:18:46;100511.66;;;21.32;100.00
24788;BME280;12883;52.662;5.196;2022-08-16T02:21:12;100520.56;;;21.33;100.00
24788;BME280;12883;52.662;5.196;2022-08-16T02:23:38;100504.41;;;21.23;100.00
24788;BME280;12883;52.662;5.196;2022-08-16T02:26:04;100499.56;;;21.15;100.00
24788;BME280;12883;52.662;5.196;2022-08-16T02:28:30;100522.72;;;21.31;100.00
24788;BME280;12883;52.662;5.196;2022-08-16T02:30:57;100522.72;;;21.31;100.00
24788;BME280;12883;52.662;5.196;2022-08-16T02:33:25;100517.59;;;21.24;100.00
24788;BME280;12883;52.662;5.196;2022-08-16T02:35:50;100527.31;;;21.30;100.00
24788;BME280;12883;52.662;5.196;2022-08-16T02:38:16;100523.56;;;21.26;100.00
24788;BME280;12883;52.662;5.196;2022-08-16T02:40:41;100518.69;;;21.28;100.00
24788;BME280;12883;52.662;5.196;2022-08-16T02:43:07;100525.69;;;21.29;100.00
24788;BME280;12883;52.662;5.196;2022-08-16T02:45:32;100546.06;;;21.70;100.00
24788;BME280;12883;52.662;5.196;2022-08-16T02:47:58;100555.81;;;22.82;100.00
24788;BME280;12883;52.662;5.196;2022-08-16T02:50:24;100549.03;;;23.55;100.00
24788;BME280;12883;52.662;5.196;2022-08-16T02:52:50;100552.91;;;23.91;100.00
24788;BME280;12883;52.662;5.196;2022-08-16T02:55:16;100546.28;;;24.15;100.00
24788;BME280;12883;52.662;5.196;2022-08-16T02:57:42;100549.50;;;24.36;100.00
24788;BME280;12883;52.662;5.196;2022-08-16T03:00:11;100528.41;;;22.21;100.00
24788;BME280;12883;52.662;5.196;2022-08-16T03:02:39;100515.63;;;21.50;100.00
24788;BME280;12883;52.662;5.196;2022-08-16T03:05:06;100507.31;;;21.36;100.00
24788;BME280;12883;52.662;5.196;2022-08-16T03:07:31;100501.16;;;21.26;100.00
24788;BME280;12883;52.662;5.196;2022-08-16T03:09:57;100491.19;;;21.11;100.00
24788;BME280;12883;52.662;5.196;2022-08-16T03:12:22;100495.28;;;21.09;100.00
24788;BME280;12883;52.662;5.196;2022-08-16T03:14:48;100489.06;;;21.03;100.00
24788;BME280;12883;52.662;5.196;2022-08-16T03:17:14;100503.91;;;21.06;100.00
24788;BME280;12883;52.662;5.196;2022-08-16T03:19:39;100495.31;;;21.04;100.00
24788;BME280;12883;52.662;5.196;2022-08-16T03:22:05;100499.09;;;21.03;100.00
24788;BME280;12883;52.662;5.196;2022-08-16T03:24:31;100506.63;;;21.01;100.00
24788;BME280;12883;52.662;5.196;2022-08-16T03:26:58;100502.63;;;20.98;100.00
24788;BME280;12883;52.662;5.196;2022-08-16T03:29:24;100507.44;;;21.01;100.00
24788;BME280;12883;52.662;5.196;2022-08-16T03:31:51;100496.41;;;20.93;100.00
24788;BME280;12883;52.662;5.196;2022-08-16T03:34:17;100507.19;;;21.03;100.00
24788;BME280;12883;52.662;5.196;2022-08-16T03:36:43;100496.38;;;20.98;100.00
24788;BME280;12883;52.662;5.196;2022-08-16T03:39:08;100508.28;;;20.97;100.00
24788;BME280;12883;52.662;5.196;2022-08-16T03:41:33;100495.88;;;20.96;100.00
24788;BME280;12883;52.662;5.196;2022-08-16T03:43:59;100495.56;;;20.97;100.00
24788;BME280;12883;52.662;5.196;2022-08-16T03:46:24;100530.00;;;21.89;100.00
24788;BME280;12883;52.662;5.196;2022-08-16T03:48:49;100530.03;;;22.84;100.00
24788;BME280;12883;52.662;5.196;2022-08-16T03:51:15;100531.09;;;23.40;100.00
24788;BME280;12883;52.662;5.196;2022-08-16T03:53:42;100542.31;;;23.71;100.00
24788;BME280;12883;52.662;5.196;2022-08-16T03:56:09;100528.44;;;23.96;100.00
24788;BME280;12883;52.662;5.196;2022-08-16T03:58:35;100510.66;;;23.85;100.00
24788;BME280;12883;52.662;5.196;2022-08-16T04:01:00;100516.69;;;21.54;100.00
24788;BME280;12883;52.662;5.196;2022-08-16T04:03:26;100501.22;;;21.11;100.00
24788;BME280;12883;52.662;5.196;2022-08-16T04:05:52;100510.66;;;21.03;100.00
24788;BME280;12883;52.662;5.196;2022-08-16T04:08:18;100491.00;;;20.98;100.00
24788;BME280;12883;52.662;5.196;2022-08-16T04:10:46;100508.78;;;20.99;100.00
24788;BME280;12883;52.662;5.196;2022-08-16T04:13:12;100490.75;;;20.94;100.00
24788;BME280;12883;52.662;5.196;2022-08-16T04:15:37;100498.03;;;20.89;100.00
24788;BME280;12883;52.662;5.196;2022-08-16T04:18:02;100496.44;;;20.88;100.00
24788;BME280;12883;52.662;5.196;2022-08-16T04:20:28;100501.00;;;20.87;100.00
24788;BME280;12883;52.662;5.196;2022-08-16T04:22:55;100511.53;;;20.89;100.00
24788;BME280;12883;52.662;5.196;2022-08-16T04:25:20;100509.63;;;20.89;100.00
24788;BME280;12883;52.662;5.196;2022-08-16T04:27:46;100514.22;;;20.89;100.00
24788;BME280;12883;52.662;5.196;2022-08-16T04:30:19;100497.50;;;20.72;100.00
24788;BME280;12883;52.662;5.196;2022-08-16T04:32:46;100510.72;;;20.88;100.00
24788;BME280;12883;52.662;5.196;2022-08-16T04:35:14;100517.19;;;20.87;100.00
24788;BME280;12883;52.662;5.196;2022-08-16T04:37:44;100519.06;;;20.87;100.00
24788;BME280;12883;52.662;5.196;2022-08-16T04:40:10;100504.78;;;20.76;100.00
24788;BME280;12883;52.662;5.196;2022-08-16T04:42:37;100524.47;;;20.92;100.00
24788;BME280;12883;52.662;5.196;2022-08-16T04:45:05;100544.38;;;21.11;100.00
24788;BME280;12883;52.662;5.196;2022-08-16T04:47:31;100552.97;;;22.30;100.00
24788;BME280;12883;52.662;5.196;2022-08-16T04:49:57;100552.25;;;23.10;100.00
24788;BME280;12883;52.662;5.196;2022-08-16T04:52:23;100553.78;;;23.44;100.00
24788;BME280;12883;52.662;5.196;2022-08-16T04:54:48;100565.38;;;23.92;100.00
24788;BME280;12883;52.662;5.196;2022-08-16T04:57:14;100573.56;;;24.05;100.00
24788;BME280;12883;52.662;5.196;2022-08-16T04:59:39;100534.66;;;22.22;100.00
24788;BME280;12883;52.662;5.196;2022-08-16T05:02:05;100548.06;;;21.40;100.00
24788;BME280;12883;52.662;5.196;2022-08-16T05:04:30;100545.69;;;21.23;100.00
24788;BME280;12883;52.662;5.196;2022-08-16T05:06:56;100540.59;;;21.17;100.00
24788;BME280;12883;52.662;5.196;2022-08-16T05:09:21;100541.13;;;21.14;100.00
24788;BME280;12883;52.662;5.196;2022-08-16T05:11:46;100552.75;;;21.14;100.00
24788;BME280;12883;52.662;5.196;2022-08-16T05:14:12;100549.22;;;21.14;100.00
24788;BME280;12883;52.662;5.196;2022-08-16T05:16:37;100550.31;;;21.23;100.00
24788;BME280;12883;52.662;5.196;2022-08-16T05:19:03;100551.88;;;21.29;100.00
24788;BME280;12883;52.662;5.196;2022-08-16T05:21:30;100551.88;;;21.29;100.00
24788;BME280;12883;52.662;5.196;2022-08-16T05:23:57;100548.38;;;21.28;100.00
24788;BME280;12883;52.662;5.196;2022-08-16T05:26:23;100556.19;;;21.35;100.00
24788;BME280;12883;52.662;5.196;2022-08-16T05:28:49;100557.81;;;21.36;100.00
24788;BME280;12883;52.662;5.196;2022-08-16T05:31:14;100563.47;;;21.39;100.00
24788;BME280;12883;52.662;5.196;2022-08-16T05:33:41;100541.31;;;21.37;100.00
24788;BME280;12883;52.662;5.196;2022-08-16T05:36:06;100554.28;;;21.40;100.00
24788;BME280;12883;52.662;5.196;2022-08-16T05:38:32;100562.38;;;21.40;100.00
24788;BME280;12883;52.662;5.196;2022-08-16T05:40:58;100554.81;;;21.42;100.00
24788;BME280;12883;52.662;5.196;2022-08-16T05:43:24;100554.56;;;21.39;100.00
24788;BME280;12883;52.662;5.196;2022-08-16T05:45:50;100591.56;;;22.02;100.00
24788;BME280;12883;52.662;5.196;2022-08-16T05:48:16;100600.81;;;23.01;100.00
24788;BME280;12883;52.662;5.196;2022-08-16T05:50:42;100576.94;;;23.55;100.00
24788;BME280;12883;52.662;5.196;2022-08-16T05:53:08;100600.41;;;24.07;100.00
24788;BME280;12883;52.662;5.196;2022-08-16T05:55:34;100611.19;;;24.30;100.00
24788;BME280;12883;52.662;5.196;2022-08-16T05:57:59;100619.31;;;24.49;100.00
24788;BME280;12883;52.662;5.196;2022-08-16T06:00:25;100579.06;;;22.11;100.00
24788;BME280;12883;52.662;5.196;2022-08-16T06:02:51;100583.34;;;21.58;100.00
24788;BME280;12883;52.662;5.196;2022-08-16T06:05:17;100583.44;;;21.43;100.00
24788;BME280;12883;52.662;5.196;2022-08-16T06:07:42;100580.72;;;21.38;100.00
24788;BME280;12883;52.662;5.196;2022-08-16T06:10:08;100575.91;;;21.35;100.00
24788;BME280;12883;52.662;5.196;2022-08-16T06:12:34;100596.16;;;21.38;100.00
24788;BME280;12883;52.662;5.196;2022-08-16T06:15:03;100592.63;;;21.42;100.00
24788;BME280;12883;52.662;5.196;2022-08-16T06:17:29;100593.13;;;21.44;100.00
24788;BME280;12883;52.662;5.196;2022-08-16T06:19:55;100593.41;;;21.48;100.00
24788;BME280;12883;52.662;5.196;2022-08-16T06:22:20;100603.09;;;21.54;100.00
24788;BME280;12883;52.662;5.196;2022-08-16T06:24:46;100596.31;;;21.66;100.00
24788;BME280;12883;52.662;5.196;2022-08-16T06:27:12;100600.34;;;21.74;100.00
24788;BME280;12883;52.662;5.196;2022-08-16T06:29:37;100597.88;;;21.82;100.00
24788;BME280;12883;52.662;5.196;2022-08-16T06:32:03;100603.25;;;21.87;100.00
24788;BME280;12883;52.662;5.196;2022-08-16T06:34:29;100601.38;;;21.83;100.00
24788;BME280;12883;52.662;5.196;2022-08-16T06:36:55;100609.72;;;21.91;100.00
24788;BME280;12883;52.662;5.196;2022-08-16T06:39:20;100601.28;;;21.98;100.00
24788;BME280;12883;52.662;5.196;2022-08-16T06:41:46;100610.47;;;22.02;100.00
24788;BME280;12883;52.662;5.196;2022-08-16T06:44:11;100610.50;;;21.97;100.00
24788;BME280;12883;52.662;5.196;2022-08-16T06:46:37;100632.00;;;22.94;100.00
24788;BME280;12883;52.662;5.196;2022-08-16T06:49:06;100637.69;;;23.73;100.00
24788;BME280;12883;52.662;5.196;2022-08-16T06:51:33;100637.56;;;24.25;100.00
24788;BME280;12883;52.662;5.196;2022-08-16T06:53:59;100652.88;;;24.71;100.00
24788;BME280;12883;52.662;5.196;2022-08-16T06:56:25;100652.03;;;24.76;100.00
24788;BME280;12883;52.662;5.196;2022-08-16T06:58:51;100638.88;;;24.27;100.00
24788;BME280;12883;52.662;5.196;2022-08-16T07:01:18;100627.34;;;22.71;100.00
24788;BME280;12883;52.662;5.196;2022-08-16T07:03:43;100628.00;;;22.53;100.00
24788;BME280;12883;52.662;5.196;2022-08-16T07:06:09;100627.50;;;22.46;100.00
24788;BME280;12883;52.662;5.196;2022-08-16T07:08:35;100624.81;;;22.46;100.00
24788;BME280;12883;52.662;5.196;2022-08-16T07:11:02;100632.41;;;22.44;100.00
24788;BME280;12883;52.662;5.196;2022-08-16T07:13:27;100631.88;;;22.47;100.00
24788;BME280;12883;52.662;5.196;2022-08-16T07:15:55;100612.94;;;22.37;100.00
24788;BME280;12883;52.662;5.196;2022-08-16T07:18:20;100638.31;;;22.51;100.00
24788;BME280;12883;52.662;5.196;2022-08-16T07:20:46;100639.06;;;22.56;100.00
24788;BME280;12883;52.662;5.196;2022-08-16T07:23:13;100639.56;;;22.63;100.00
24788;BME280;12883;52.662;5.196;2022-08-16T07:25:39;100633.00;;;22.74;100.00
24788;BME280;12883;52.662;5.196;2022-08-16T07:28:04;100637.06;;;22.72;100.00
24788;BME280;12883;52.662;5.196;2022-08-16T07:30:31;100638.13;;;22.76;100.00
24788;BME280;12883;52.662;5.196;2022-08-16T07:32:57;100637.03;;;22.77;100.00
24788;BME280;12883;52.662;5.196;2022-08-16T07:35:23;100625.25;;;22.91;100.00
24788;BME280;12883;52.662;5.196;2022-08-16T07:37:49;100630.38;;;22.93;100.00
24788;BME280;12883;52.662;5.196;2022-08-16T07:40:14;100645.53;;;22.94;100.00
24788;BME280;12883;52.662;5.196;2022-08-16T07:42:40;100639.81;;;23.00;100.00
24788;BME280;12883;52.662;5.196;2022-08-16T07:45:06;100667.44;;;23.31;100.00
24788;BME280;12883;52.662;5.196;2022-08-16T07:47:32;100669.47;;;24.33;100.00
24788;BME280;12883;52.662;5.196;2022-08-16T07:49:58;100676.63;;;24.98;100.00
24788;BME280;12883;52.662;5.196;2022-08-16T07:52:24;100674.72;;;25.30;100.00
24788;BME280;12883;52.662;5.196;2022-08-16T07:54:49;100667.72;;;25.56;100.00
24788;BME280;12883;52.662;5.196;2022-08-16T07:57:15;100696.25;;;25.86;100.00
24788;BME280;12883;52.662;5.196;2022-08-16T07:59:40;100661.75;;;24.40;100.00
24788;BME280;12883;52.662;5.196;2022-08-16T08:02:07;100652.22;;;23.58;100.00
24788;BME280;12883;52.662;5.196;2022-08-16T08:04:33;100647.25;;;23.42;100.00
24788;BME280;12883;52.662;5.196;2022-08-16T08:06:58;100631.75;;;23.24;100.00
24788;BME280;12883;52.662;5.196;2022-08-16T08:09:24;100656.22;;;23.42;100.00
24788;BME280;12883;52.662;5.196;2022-08-16T08:11:50;100650.75;;;23.47;100.00
24788;BME280;12883;52.662;5.196;2022-08-16T08:14:15;100649.00;;;23.56;100.00
24788;BME280;12883;52.662;5.196;2022-08-16T08:16:41;100650.34;;;23.59;100.00
24788;BME280;12883;52.662;5.196;2022-08-16T08:19:07;100661.91;;;23.64;100.00
24788;BME280;12883;52.662;5.196;2022-08-16T08:21:37;100643.34;;;23.53;100.00
24788;BME280;12883;52.662;5.196;2022-08-16T08:24:05;100664.97;;;23.58;100.00
24788;BME280;12883;52.662;5.196;2022-08-16T08:26:32;100675.19;;;23.66;100.00
24788;BME280;12883;52.662;5.196;2022-08-16T08:28:58;100677.50;;;23.77;100.00
24788;BME280;12883;52.662;5.196;2022-08-16T08:31:23;100626.50;;;23.56;100.00
24788;BME280;12883;52.662;5.196;2022-08-16T08:33:49;100665.94;;;23.95;100.00
24788;BME280;12883;52.662;5.196;2022-08-16T08:36:21;100677.09;;;23.89;100.00
24788;BME280;12883;52.662;5.196;2022-08-16T08:38:49;100680.63;;;23.89;100.00
24788;BME280;12883;52.662;5.196;2022-08-16T08:41:16;100682.41;;;23.99;100.00
24788;BME280;12883;52.662;5.196;2022-08-16T08:43:42;100674.19;;;24.04;100.00
24788;BME280;12883;52.662;5.196;2022-08-16T08:46:08;100708.00;;;24.72;100.00
24788;BME280;12883;52.662;5.196;2022-08-16T08:48:33;100715.25;;;25.59;100.00
24788;BME280;12883;52.662;5.196;2022-08-16T08:51:01;100723.84;;;26.20;100.00
24788;BME280;12883;52.662;5.196;2022-08-16T08:53:27;100732.97;;;26.51;100.00
24788;BME280;12883;52.662;5.196;2022-08-16T08:55:53;100732.16;;;26.50;100.00
24788;BME280;12883;52.662;5.196;2022-08-16T08:58:18;100737.72;;;26.59;100.00
24788;BME280;12883;52.662;5.196;2022-08-16T09:00:44;100699.78;;;24.77;100.00
24788;BME280;12883;52.662;5.196;2022-08-16T09:03:11;100703.94;;;24.51;100.00
24788;BME280;12883;52.662;5.196;2022-08-16T09:05:39;100696.78;;;24.60;100.00
24788;BME280;12883;52.662;5.196;2022-08-16T09:08:04;100709.97;;;24.48;100.00
24788;BME280;12883;52.662;5.196;2022-08-16T09:10:30;100707.63;;;24.60;100.00
24788;BME280;12883;52.662;5.196;2022-08-16T09:12:57;100708.78;;;24.54;100.00
24788;BME280;12883;52.662;5.196;2022-08-16T09:15:23;100689.28;;;24.52;100.00
24788;BME280;12883;52.662;5.196;2022-08-16T09:17:48;100704.72;;;24.75;100.00
24788;BME280;12883;52.662;5.196;2022-08-16T09:20:14;100713.19;;;24.87;100.00
24788;BME280;12883;52.662;5.196;2022-08-16T09:22:40;100711.09;;;24.84;100.00
24788;BME280;12883;52.662;5.196;2022-08-16T09:25:07;100720.84;;;24.85;100.00
24788;BME280;12883;52.662;5.196;2022-08-16T09:27:33;100721.34;;;24.87;100.00
24788;BME280;12883;52.662;5.196;2022-08-16T09:29:58;100720.75;;;24.90;100.00
24788;BME280;12883;52.662;5.196;2022-08-16T09:32:24;100716.69;;;25.06;100.00
24788;BME280;12883;52.662;5.196;2022-08-16T09:34:49;100725.19;;;25.18;100.00
24788;BME280;12883;52.662;5.196;2022-08-16T09:37:15;100731.41;;;25.18;100.00
24788;BME280;12883;52.662;5.196;2022-08-16T09:39:41;100733.81;;;25.25;100.00
24788;BME280;12883;52.662;5.196;2022-08-16T09:42:09;100719.34;;;25.11;100.00
24788;BME280;12883;52.662;5.196;2022-08-16T09:44:34;100756.53;;;25.29;100.00
24788;BME280;12883;52.662;5.196;2022-08-16T09:47:00;100763.25;;;26.36;100.00
24788;BME280;12883;52.662;5.196;2022-08-16T09:49:26;100779.00;;;27.09;100.00
24788;BME280;12883;52.662;5.196;2022-08-16T09:51:51;100785.25;;;27.45;100.00
24788;BME280;12883;52.662;5.196;2022-08-16T09:54:21;100795.66;;;27.65;100.00
24788;BME280;12883;52.662;5.196;2022-08-16T09:56:47;100799.44;;;27.78;100.00
24788;BME280;12883;52.662;5.196;2022-08-16T09:59:13;100771.91;;;26.65;100.00
24788;BME280;12883;52.662;5.196;2022-08-16T10:01:40;100764.31;;;25.81;100.00
24788;BME280;12883;52.662;5.196;2022-08-16T10:04:06;100740.50;;;25.46;100.00
24788;BME280;12883;52.662;5.196;2022-08-16T10:06:33;100765.31;;;25.58;100.00
24788;BME280;12883;52.662;5.196;2022-08-16T10:09:03;100765.78;;;25.60;100.00
24788;BME280;12883;52.662;5.196;2022-08-16T10:11:28;100769.50;;;25.64;100.00
24788;BME280;12883;52.662;5.196;2022-08-16T10:14:12;100768.59;;;25.55;100.00
24788;BME280;12883;52.662;5.196;2022-08-16T10:16:37;100782.81;;;25.52;100.00
24788;BME280;12883;52.662;5.196;2022-08-16T10:19:03;100771.50;;;25.45;100.00
24788;BME280;12883;52.662;5.196;2022-08-16T10:21:28;100779.06;;;25.48;100.00
24788;BME280;12883;52.662;5.196;2022-08-16T10:23:54;100776.97;;;25.58;100.00
24788;BME280;12883;52.662;5.196;2022-08-16T10:26:22;100763.19;;;25.68;100.00
24788;BME280;12883;52.662;5.196;2022-08-16T10:28:51;100757.47;;;25.83;100.00
24788;BME280;12883;52.662;5.196;2022-08-16T10:31:16;100754.28;;;25.95;100.00
24788;BME280;12883;52.662;5.196;2022-08-16T10:33:43;100752.75;;;26.02;100.00
24788;BME280;12883;52.662;5.196;2022-08-16T10:36:08;100735.03;;;26.18;100.00
24788;BME280;12883;52.662;5.196;2022-08-16T10:38:36;100760.31;;;26.19;100.00
24788;BME280;12883;52.662;5.196;2022-08-16T10:41:04;100763.34;;;26.31;100.00
24788;BME280;12883;52.662;5.196;2022-08-16T10:43:30;100760.72;;;26.26;100.00
24788;BME280;12883;52.662;5.196;2022-08-16T10:45:55;100776.50;;;26.77;100.00
24788;BME280;12883;52.662;5.196;2022-08-16T10:48:21;100800.00;;;27.75;100.00
24788;BME280;12883;52.662;5.196;2022-08-16T10:50:46;100810.56;;;28.20;100.00
24788;BME280;12883;52.662;5.196;2022-08-16T10:53:12;100812.56;;;28.45;100.00
24788;BME280;12883;52.662;5.196;2022-08-16T10:55:39;100824.19;;;28.59;100.00
24788;BME280;12883;52.662;5.196;2022-08-16T10:58:08;100828.84;;;28.67;100.00
24788;BME280;12883;52.662;5.196;2022-08-16T11:00:35;100786.38;;;26.73;100.00
24788;BME280;12883;52.662;5.196;2022-08-16T11:03:02;100786.00;;;26.40;100.00
24788;BME280;12883;52.662;5.196;2022-08-16T11:05:31;100774.91;;;26.36;100.00
24788;BME280;12883;52.662;5.196;2022-08-16T11:07:57;100785.41;;;26.43;100.00
24788;BME280;12883;52.662;5.196;2022-08-16T11:10:28;100795.19;;;26.44;100.00
24788;BME280;12883;52.662;5.196;2022-08-16T11:12:55;100795.38;;;26.34;100.00
24788;BME280;12883;52.662;5.196;2022-08-16T11:15:20;100818.41;;;26.28;100.00
24788;BME280;12883;52.662;5.196;2022-08-16T11:17:47;100825.13;;;26.30;100.00
24788;BME280;12883;52.662;5.196;2022-08-16T11:20:14;100826.56;;;26.28;100.00
24788;BME280;12883;52.662;5.196;2022-08-16T11:22:43;100823.22;;;26.31;100.00
24788;BME280;12883;52.662;5.196;2022-08-16T11:25:09;100815.69;;;26.28;100.00
24788;BME280;12883;52.662;5.196;2022-08-16T11:27:35;100822.00;;;26.37;100.00
24788;BME280;12883;52.662;5.196;2022-08-16T11:30:02;100823.72;;;26.46;100.00
24788;BME280;12883;52.662;5.196;2022-08-16T11:32:29;100826.88;;;26.53;100.00
24788;BME280;12883;52.662;5.196;2022-08-16T11:34:54;100826.47;;;26.60;100.00
24788;BME280;12883;52.662;5.196;2022-08-16T11:37:21;100825.53;;;26.64;100.00
24788;BME280;12883;52.662;5.196;2022-08-16T11:39:46;100836.97;;;26.66;100.00
24788;BME280;12883;52.662;5.196;2022-08-16T11:42:12;100840.16;;;26.68;100.00
24788;BME280;12883;52.662;5.196;2022-08-16T11:44:38;100868.91;;;26.74;100.00
24788;BME280;12883;52.662;5.196;2022-08-16T11:47:03;100875.50;;;27.79;100.00
24788;BME280;12883;52.662;5.196;2022-08-16T11:49:28;100893.91;;;28.48;99.76
24788;BME280;12883;52.662;5.196;2022-08-16T11:51:54;100891.25;;;28.82;94.20
24788;BME280;12883;52.662;5.196;2022-08-16T11:54:19;100901.44;;;28.99;90.71
24788;BME280;12883;52.662;5.196;2022-08-16T11:56:45;100902.91;;;29.05;88.72
24788;BME280;12883;52.662;5.196;2022-08-16T11:59:10;100882.38;;;27.99;88.99
24788;BME280;12883;52.662;5.196;2022-08-16T12:01:35;100880.59;;;26.88;100.00
24788;BME280;12883;52.662;5.196;2022-08-16T12:04:01;100880.59;;;26.74;100.00
24788;BME280;12883;52.662;5.196;2022-08-16T12:06:27;100879.81;;;26.74;100.00
24788;BME280;12883;52.662;5.196;2022-08-16T12:08:54;100882.75;;;26.77;100.00
24788;BME280;12883;52.662;5.196;2022-08-16T12:11:22;100878.78;;;26.83;100.00
24788;BME280;12883;52.662;5.196;2022-08-16T12:13:48;100873.75;;;26.77;100.00
24788;BME280;12883;52.662;5.196;2022-08-16T12:16:13;100891.22;;;26.89;100.00
24788;BME280;12883;52.662;5.196;2022-08-16T12:18:39;100885.31;;;26.96;100.00
24788;BME280;12883;52.662;5.196;2022-08-16T12:21:05;100892.69;;;26.95;100.00
24788;BME280;12883;52.662;5.196;2022-08-16T12:23:31;100885.44;;;26.91;100.00
24788;BME280;12883;52.662;5.196;2022-08-16T12:25:56;100891.06;;;27.08;100.00
24788;BME280;12883;52.662;5.196;2022-08-16T12:28:22;100891.25;;;27.25;100.00
24788;BME280;12883;52.662;5.196;2022-08-16T12:30:47;100892.47;;;27.19;100.00
24788;BME280;12883;52.662;5.196;2022-08-16T12:33:14;100898.84;;;27.14;100.00
24788;BME280;12883;52.662;5.196;2022-08-16T12:35:41;100906.72;;;27.16;100.00